Terminal Aerodrome Forecast
Issued by NWS

Home | Current Version | Previous Version | Text Only | Print | Product List | Glossary On
Versions: 1 2 3 4 5 6 7 8 9 10 11 12 13 14 15 16 17
724
FTUS46 KSTO 081303 AAA
TAFSCK
TAF AMD
KSCK 081303Z 0813/0912 VRB03KT 1SM BR BCFG SCT003
      TEMPO 0814/0817 1/4SM FG OVC002
     FM081800 30006KT P6SM SKC=

USA.gov is the U.S. government's official web portal to all federal, state and local government web resources and services.